Time;durP1;ratioP1;P1;durP2;ratioP2;P2;SDS_P1;SDS_P2;PMS_P1;PMS_P2;Temp;Humidity;BMP_temperature;BMP_pressure;BME280_temperature;BME280_humidity;BME280_pressure;Samples;Min_cycle;Max_cycle;Signal;HPM_P1;HPM_P2
2023/03/27 00:01:11;;;;;;;7.23;3.60;;;;;;;9.25;59.39;98888.79;1430811;91;21414;-79
2023/03/27 00:03:38;;;;;;;5.93;3.07;;;;;;;9.24;59.39;98887.98;1462357;89;21562;-78
2023/03/27 00:06:10;;;;;;;4.53;2.33;;;;;;;9.24;59.42;98887.16;1428557;91;21423;-80
2023/03/27 00:08:37;;;;;;;12.70;5.20;;;;;;;9.24;59.40;98877.92;1457436;89;21435;-78
2023/03/27 00:11:04;;;;;;;5.40;2.77;;;;;;;9.25;59.45;98868.99;1420489;91;21570;-79
2023/03/27 00:13:32;;;;;;;5.40;2.40;;;;;;;9.26;59.70;98866.66;1450899;88;21338;-79
2023/03/27 00:15:58;;;;;;;5.17;2.90;;;;;;;9.25;59.56;98859.25;1426605;91;22274;-80
2023/03/27 00:18:28;;;;;;;6.40;2.97;;;;;;;9.24;59.51;98854.98;1447110;88;21352;-79
2023/03/27 00:21:01;;;;;;;6.90;2.50;;;;;;;9.25;59.55;98857.11;1424840;91;21508;-80
2023/03/27 00:23:30;;;;;;;5.67;3.10;;;;;;;9.26;59.57;98857.42;1449782;90;21552;-79
2023/03/27 00:25:58;;;;;;;5.70;2.67;;;;;;;9.25;59.64;98851.33;1423452;91;21385;-80
2023/03/27 00:28:27;;;;;;;4.73;2.10;;;;;;;9.25;59.50;98846.05;1453941;90;22454;-79
2023/03/27 00:30:55;;;;;;;5.63;3.17;;;;;;;9.25;59.49;98843.91;1449354;90;21552;-80
2023/03/27 00:33:23;;;;;;;6.67;2.97;;;;;;;9.25;59.48;98846.05;1358287;91;21297;-80
2023/03/27 00:35:50;;;;;;;6.07;2.10;;;;;;;9.26;59.50;98848.19;1449222;89;21376;-80
2023/03/27 00:38:17;;;;;;;6.07;2.80;;;;;;;9.25;59.44;98841.27;1432906;91;21379;-79
2023/03/27 00:40:47;;;;;;;4.80;2.67;;;;;;;9.25;59.52;98845.23;1459610;88;21405;-79
2023/03/27 00:43:23;;;;;;;3.77;1.93;;;;;;;9.25;59.48;98841.27;1451867;90;21339;-79
2023/03/27 00:45:55;;;;;;;5.07;2.87;;;;;;;9.24;59.51;98843.60;1450207;89;22517;-78
2023/03/27 00:48:23;;;;;;;11.37;3.63;;;;;;;9.24;59.60;98848.88;1432579;91;22420;-79
2023/03/27 00:50:51;;;;;;;5.40;3.00;;;;;;;9.24;59.66;98843.60;1449036;89;21702;-78
2023/03/27 00:53:22;;;;;;;3.70;2.00;;;;;;;9.23;59.69;98842.75;1420788;91;21371;-80
2023/03/27 00:55:52;;;;;;;5.33;2.73;;;;;;;9.24;59.69;98839.64;1450370;89;21987;-79
2023/03/27 00:58:30;;;;;;;3.65;1.82;;;;;;;9.26;59.56;98833.66;1415075;91;22362;-79
2023/03/27 01:00:57;;;;;;;6.30;2.33;;;;;;;9.28;59.51;98840.91;1449303;89;22220;-80
2023/03/27 01:03:28;;;;;;;6.67;2.50;;;;;;;9.28;59.65;98838.27;1425035;91;21372;-80
2023/03/27 01:05:55;;;;;;;;;;;;;;;9.29;59.53;98842.55;1456333;89;21398;-80
2023/03/27 01:08:24;;;;;;;5.53;2.23;;;;;;;9.28;60.04;98842.23;1441288;90;20290;-80
2023/03/27 01:10:58;;;;;;;5.03;2.57;;;;;;;9.29;59.85;98835.94;1434871;91;21482;-80
2023/03/27 01:14:05;;;;;;;4.97;2.83;;;;;;;9.29;59.88;98833.30;1453515;89;21589;-78
2023/03/27 01:16:50;;;;;;;6.77;2.67;;;;;;;9.31;59.94;98832.64;1430604;91;21342;-80
2023/03/27 01:19:55;;;;;;;5.20;2.20;;;;;;;9.32;60.07;98832.13;1446617;89;22297;-80
2023/03/27 01:22:51;;;;;;;3.70;1.83;;;;;;;9.34;59.91;98830.14;1428302;91;21349;-80
2023/03/27 01:25:47;;;;;;;4.97;1.67;;;;;;;9.35;59.82;98832.62;1448687;89;21390;-78
2023/03/27 01:28:25;;;;;;;5.10;2.23;;;;;;;9.40;59.96;98826.28;1425726;91;21608;-80
2023/03/27 01:31:12;;;;;;;6.03;1.90;;;;;;;9.45;59.88;98818.65;1453099;90;21338;-79
2023/03/27 01:34:26;;;;;;;5.47;1.63;;;;;;;9.47;59.80;98815.33;1429626;91;21334;-79
2023/03/27 01:37:17;;;;;;;2.70;1.20;;;;;;;9.49;59.73;98805.42;1451578;88;21589;-79
2023/03/27 01:40:06;;;;;;;3.57;1.73;;;;;;;9.52;59.52;98801.58;1455517;89;21523;-80
2023/03/27 01:42:44;;;;;;;5.90;2.27;;;;;;;9.53;59.76;98802.42;1454567;90;22321;-80
2023/03/27 01:45:21;;;;;;;2.87;1.70;;;;;;;9.51;60.32;98784.61;1460268;89;21463;-80
2023/03/27 01:48:11;;;;;;;3.43;1.70;;;;;;;9.49;60.64;98773.73;1428807;91;21452;-80
2023/03/27 01:50:52;;;;;;;3.10;1.37;;;;;;;9.48;60.57;98777.86;1452205;90;21309;-80
2023/03/27 01:53:33;;;;;;;3.55;1.65;;;;;;;9.49;60.74;98792.22;1424662;91;22318;-80
2023/03/27 01:56:02;;;;;;;;;;;;;;;9.51;60.67;98791.20;1448908;90;21583;-79
2023/03/27 01:58:34;;;;;;;12.00;3.50;;;;;;;9.50;60.90;98790.39;1449774;89;20275;-79
2023/03/27 02:01:03;;;;;;;8.73;2.97;;;;;;;9.49;60.58;98781.66;1426207;91;22451;-79
2023/03/27 02:03:43;;;;;;;3.90;2.00;;;;;;;9.51;60.39;98784.61;1454576;89;21375;-79
2023/03/27 02:06:27;;;;;;;5.30;1.50;;;;;;;9.52;60.20;98782.27;1447767;89;21493;-80
2023/03/27 02:09:07;;;;;;;9.27;3.47;;;;;;;9.53;60.20;98781.30;1433303;91;21357;-79
2023/03/27 02:11:39;;;;;;;4.37;2.17;;;;;;;9.53;60.24;98778.65;1455610;88;22234;-78
2023/03/27 02:14:10;;;;;;;;;;;;;;;9.51;60.23;98773.53;1422739;91;21437;-79
2023/03/27 02:16:44;;;;;;;3.83;1.30;;;;;;;9.47;60.31;98771.77;1420737;92;20951;-79
2023/03/27 02:19:18;;;;;;;3.50;1.67;;;;;;;9.45;60.41;98756.59;1452906;88;22382;-79
2023/03/27 02:21:44;;;;;;;3.57;1.80;;;;;;;9.44;60.14;98761.56;1464404;89;21801;-78
2023/03/27 02:24:11;;;;;;;3.60;2.07;;;;;;;9.45;59.88;98765.83;1415358;91;22369;-83
2023/03/27 02:26:38;;;;;;;4.47;2.20;;;;;;;9.47;59.67;98766.48;1455214;89;21405;-82
2023/03/27 02:29:26;;;;;;;2.67;1.27;;;;;;;9.51;59.49;98756.88;1430939;91;21489;-81
2023/03/27 02:32:21;;;;;;;8.73;2.13;;;;;;;9.53;59.48;98749.59;1455839;89;21457;-81
2023/03/27 02:35:16;;;;;;;2.60;1.37;;;;;;;9.53;59.53;98760.16;1457015;90;21434;-81
2023/03/27 02:38:24;;;;;;;3.17;1.47;;;;;;;9.53;59.86;98759.66;1434494;91;22473;-81
2023/03/27 02:41:25;;;;;;;2.20;1.73;;;;;;;9.54;59.98;98761.79;1453980;90;21420;-81
2023/03/27 02:44:22;;;;;;;2.37;1.17;;;;;;;9.49;61.32;98755.72;1428601;91;21653;-82
2023/03/27 02:47:06;;;;;;;1.93;1.40;;;;;;;9.44;60.87;98750.19;1447872;89;21516;-83
2023/03/27 02:49:41;;;;;;;3.73;2.13;;;;;;;9.39;61.47;98752.55;1428430;91;21453;-82
2023/03/27 02:52:18;;;;;;;5.17;2.40;;;;;;;9.35;62.15;98749.45;1450043;90;21611;-82
2023/03/27 02:54:52;;;;;;;3.40;1.50;;;;;;;9.32;63.16;98740.57;1440620;90;22387;-81
2023/03/27 02:57:25;;;;;;;3.63;1.73;;;;;;;9.26;64.07;98732.03;1434580;91;22450;-81
2023/03/27 02:59:56;;;;;;;6.83;1.60;;;;;;;9.21;65.52;98730.45;1460746;88;21420;-82
2023/03/27 03:02:28;;;;;;;1.80;1.03;;;;;;;9.16;66.42;98719.61;1457788;89;21449;-81
2023/03/27 03:05:02;;;;;;;9.30;2.37;;;;;;;9.15;67.59;98721.91;1426326;91;21504;-81
2023/03/27 03:07:29;;;;;;;5.80;2.33;;;;;;;9.14;69.77;98711.04;1450750;88;21449;-81
2023/03/27 03:09:55;;;;;;;4.07;2.00;;;;;;;9.11;70.61;98715.36;1424806;91;21460;-81
2023/03/27 03:12:22;;;;;;;8.83;2.50;;;;;;;9.07;70.95;98705.67;1457769;88;21413;-81
2023/03/27 03:14:48;;;;;;;6.50;2.37;;;;;;;8.98;71.66;98697.02;1408601;91;21356;-80
2023/03/27 03:17:15;;;;;;;3.67;1.63;;;;;;;8.93;71.48;98699.36;1452628;88;21574;-79
2023/03/27 03:19:41;;;;;;;4.20;1.97;;;;;;;8.84;72.37;98693.84;1425573;91;22392;-80
2023/03/27 03:22:08;;;;;;;5.33;1.77;;;;;;;8.78;73.52;98677.42;1459777;89;21324;-79
2023/03/27 03:24:34;;;;;;;4.27;1.80;;;;;;;8.67;77.39;98675.20;1435019;91;21320;-80
2023/03/27 03:27:02;;;;;;;5.00;2.27;;;;;;;8.54;79.22;98666.05;1441215;90;22256;-80
2023/03/27 03:29:34;;;;;;;7.13;2.20;;;;;;;8.47;81.65;98670.92;1428618;91;21407;-79
2023/03/27 03:31:58;;;;;;;4.53;1.80;;;;;;;8.41;80.16;98671.12;1461854;90;21412;-79
2023/03/27 03:34:26;;;;;;;5.40;1.83;;;;;;;8.40;79.10;98667.33;1431383;91;21378;-79
2023/03/27 03:36:54;;;;;;;7.27;1.67;;;;;;;8.40;78.76;98658.95;1458972;89;21420;-79
2023/03/27 03:39:21;;;;;;;5.73;2.57;;;;;;;8.35;81.37;98658.63;1450565;89;21383;-79
2023/03/27 03:41:48;;;;;;;4.67;1.80;;;;;;;8.35;79.70;98659.94;1428502;91;22405;-79
2023/03/27 03:44:14;;;;;;;4.73;2.17;;;;;;;8.27;84.45;98647.63;1457065;88;21376;-79
2023/03/27 03:46:40;;;;;;;6.07;2.27;;;;;;;8.18;84.26;98645.24;1454175;90;21456;-80
2023/03/27 03:49:07;;;;;;;10.17;3.70;;;;;;;8.07;87.06;98637.23;1427371;91;21607;-80
2023/03/27 03:51:37;;;;;;;8.10;3.77;;;;;;;7.98;87.18;98631.20;1453720;89;21427;-80
2023/03/27 03:54:05;;;;;;;;;;;;;;;7.90;87.57;98632.06;1431461;91;21585;-79
2023/03/27 03:56:33;;;;;;;5.27;2.47;;;;;;;7.81;91.55;98630.98;1414090;92;20408;-79
2023/03/27 03:58:59;;;;;;;5.33;2.77;;;;;;;7.78;89.31;98633.97;1446614;90;22420;-79
2023/03/27 04:01:26;;;;;;;6.47;1.87;;;;;;;7.73;89.51;98625.76;1423235;91;21437;-78
2023/03/27 04:03:53;;;;;;;3.57;1.83;;;;;;;7.71;90.73;98621.15;1448323;90;21397;-79
2023/03/27 04:06:19;;;;;;;3.17;1.67;;;;;;;7.66;90.90;98618.55;1448973;89;21744;-77
2023/03/27 04:08:46;;;;;;;3.33;2.07;;;;;;;7.66;91.05;98614.60;1434036;91;21393;-78
2023/03/27 04:11:12;;;;;;;9.00;3.00;;;;;;;7.58;91.78;98608.06;1447655;88;21397;-77
2023/03/27 04:13:39;;;;;;;5.03;1.87;;;;;;;7.55;92.27;98601.83;1450953;90;21589;-77
2023/03/27 04:16:06;;;;;;;5.17;2.10;;;;;;;7.49;91.55;98591.99;1416314;91;21401;-77
2023/03/27 04:18:33;;;;;;;6.90;2.27;;;;;;;7.46;92.50;98590.52;1451257;89;21583;-77
2023/03/27 04:21:01;;;;;;;4.50;1.90;;;;;;;7.43;93.57;98585.60;1414350;91;21394;-78
2023/03/27 04:23:32;;;;;;;4.67;2.77;;;;;;;7.42;94.00;98573.91;1448892;90;21411;-77
2023/03/27 04:25:59;;;;;;;4.07;1.97;;;;;;;7.41;93.20;98571.78;1428752;91;22594;-77
2023/03/27 04:28:29;;;;;;;6.75;2.05;;;;;;;7.41;93.48;98567.02;1446861;90;22351;-78
2023/03/27 04:30:56;;;;;;;4.93;1.83;;;;;;;7.39;94.85;98562.42;1459491;89;22681;-78
2023/03/27 04:33:23;;;;;;;3.67;2.07;;;;;;;7.38;94.32;98558.16;1456639;89;21404;-78
2023/03/27 04:35:49;;;;;;;5.47;3.60;;;;;;;7.37;93.46;98556.53;1429506;91;21507;-79
2023/03/27 04:38:16;;;;;;;3.67;2.03;;;;;;;7.36;93.34;98553.55;1449526;89;22290;-79
2023/03/27 04:40:48;;;;;;;4.70;1.87;;;;;;;7.36;93.47;98554.37;1453895;89;21368;-79
2023/03/27 04:43:16;;;;;;;6.03;2.53;;;;;;;7.36;93.45;98553.05;1427361;91;21601;-79
2023/03/27 04:45:47;;;;;;;5.43;2.17;;;;;;;7.35;93.43;98547.48;1449119;89;21405;-78
2023/03/27 04:48:12;;;;;;;4.93;3.10;;;;;;;7.34;93.48;98543.22;1452802;89;21464;-79
2023/03/27 04:50:39;;;;;;;3.70;2.07;;;;;;;7.36;93.11;98536.45;1451791;89;22555;-79
2023/03/27 04:53:07;;;;;;;9.90;2.20;;;;;;;7.38;93.49;98532.66;1435439;91;21430;-79
2023/03/27 04:55:36;;;;;;;4.37;2.47;;;;;;;7.42;92.15;98524.75;1458871;88;21317;-78
2023/03/27 04:58:02;;;;;;;5.60;1.83;;;;;;;7.48;91.79;98524.55;1430091;91;22192;-80
2023/03/27 05:00:29;;;;;;;5.53;2.17;;;;;;;7.49;92.02;98510.89;1454699;90;21294;-80
2023/03/27 05:02:55;;;;;;;5.03;2.60;;;;;;;7.49;91.75;98504.31;1426255;91;21392;-80
2023/03/27 05:05:21;;;;;;;5.47;2.87;;;;;;;7.48;91.33;98506.13;1450410;88;22373;-81
2023/03/27 05:07:49;;;;;;;4.83;2.40;;;;;;;7.47;90.96;98493.94;1452441;89;21553;-80
2023/03/27 05:10:16;;;;;;;2.93;1.90;;;;;;;7.45;90.90;98491.97;1429132;91;21594;-80
2023/03/27 05:12:51;;;;;;;3.83;2.30;;;;;;;7.43;91.95;98482.14;1449504;89;21360;-80
2023/03/27 05:15:19;;;;;;;4.00;2.00;;;;;;;7.44;91.23;98486.39;1436221;91;21364;-78
2023/03/27 05:17:51;;;;;;;5.70;2.73;;;;;;;7.45;91.43;98480.97;1452952;90;21375;-80
2023/03/27 05:27:32;;;;;;;7.00;2.57;;;;;;;7.57;90.82;98480.06;1449422;90;20328;-81
2023/03/27 05:29:58;;;;;;;5.63;2.80;;;;;;;7.55;92.26;98475.97;1426648;91;21407;-79
2023/03/27 05:32:25;;;;;;;5.70;2.27;;;;;;;7.56;91.97;98486.30;1453429;90;22256;-80
2023/03/27 05:34:58;;;;;;;8.50;3.27;;;;;;;7.55;91.52;98477.28;1426975;91;21453;-78
2023/03/27 05:37:24;;;;;;;6.20;2.90;;;;;;;7.49;92.02;98484.06;1449535;89;21389;-79
2023/03/27 05:39:51;;;;;;;7.17;2.53;;;;;;;7.47;92.23;98475.52;1413136;91;21327;-79
2023/03/27 05:42:17;;;;;;;6.43;2.83;;;;;;;7.44;91.93;98475.37;1448306;90;22278;-79
2023/03/27 05:44:44;;;;;;;6.20;3.20;;;;;;;7.41;92.31;98471.77;1451222;89;21568;-79
2023/03/27 05:47:13;;;;;;;7.03;3.27;;;;;;;7.39;92.92;98472.47;1427758;91;21334;-78
2023/03/27 05:49:39;;;;;;;13.53;4.80;;;;;;;7.41;92.45;98477.54;1451532;89;21507;-78
2023/03/27 05:52:05;;;;;;;8.17;3.40;;;;;;;7.39;92.37;98475.56;1425432;91;21386;-77
2023/03/27 05:54:31;;;;;;;6.60;2.73;;;;;;;7.43;92.00;98471.61;1451312;89;21579;-78
2023/03/27 05:56:58;;;;;;;4.27;2.67;;;;;;;7.48;91.96;98470.59;1466602;91;21313;-78
2023/03/27 05:59:24;;;;;;;7.03;3.90;;;;;;;7.55;91.21;98474.66;1443603;88;21906;-78
2023/03/27 06:01:50;;;;;;;8.00;5.57;;;;;;;7.55;91.90;98472.83;1426630;91;21636;-79
2023/03/27 06:04:17;;;;;;;13.87;4.80;;;;;;;7.56;92.02;98459.17;1451422;89;21404;-79
2023/03/27 06:06:44;;;;;;;4.97;2.70;;;;;;;7.56;92.95;98461.30;1422818;91;21533;-79
2023/03/27 06:09:11;;;;;;;8.37;3.33;;;;;;;7.57;92.87;98462.14;1451772;89;21433;-79
2023/03/27 06:11:39;;;;;;;7.07;3.67;;;;;;;7.58;92.10;98459.31;1425319;91;21474;-79
2023/03/27 06:14:06;;;;;;;4.87;3.27;;;;;;;7.60;91.90;98461.28;1449020;89;21553;-78
2023/03/27 06:16:33;;;;;;;9.03;4.43;;;;;;;7.62;92.01;98465.88;1425401;91;21373;-79
2023/03/27 06:19:00;;;;;;;6.20;3.27;;;;;;;7.68;91.86;98465.64;1457129;88;22477;-77
2023/03/27 06:21:26;;;;;;;6.53;2.93;;;;;;;7.73;91.48;98463.81;1446045;90;21434;-79
2023/03/27 06:23:52;;;;;;;6.37;3.10;;;;;;;7.75;92.30;98464.46;1422625;91;21326;-79
2023/03/27 06:26:18;;;;;;;5.83;3.10;;;;;;;7.76;92.74;98472.17;1443634;90;21413;-79
2023/03/27 06:28:45;;;;;;;10.67;5.23;;;;;;;7.78;91.41;98472.81;1451343;90;21582;-79
2023/03/27 06:31:13;;;;;;;14.73;6.13;;;;;;;7.76;92.01;98470.85;1457151;89;21508;-79
2023/03/27 06:33:39;;;;;;;6.07;3.30;;;;;;;7.71;92.64;98482.91;1430633;91;22369;-79
2023/03/27 06:36:09;;;;;;;7.17;3.17;;;;;;;7.60;94.33;98481.53;1454294;89;21957;-78
2023/03/27 06:38:36;;;;;;;11.33;4.37;;;;;;;7.57;92.11;98490.59;1454452;89;21568;-79
2023/03/27 06:41:03;;;;;;;7.30;3.83;;;;;;;7.53;93.67;98496.38;1453310;89;21324;-79
2023/03/27 06:43:29;;;;;;;9.50;4.70;;;;;;;7.52;93.69;98498.70;1422832;91;21460;-78
2023/03/27 06:45:56;;;;;;;9.93;4.53;;;;;;;7.56;92.61;98510.00;1446708;90;21508;-78
2023/03/27 06:48:23;;;;;;;7.17;3.13;;;;;;;7.59;94.16;98505.70;1416808;91;21504;-78
2023/03/27 06:50:51;;;;;;;9.30;4.73;;;;;;;7.60;94.33;98499.45;1449868;88;21425;-78
2023/03/27 06:53:19;;;;;;;7.77;4.00;;;;;;;7.64;95.64;98508.63;1453291;90;21398;-78
2023/03/27 06:55:46;;;;;;;11.20;4.27;;;;;;;7.63;93.66;98507.00;1426635;91;21453;-79
2023/03/27 06:58:12;;;;;;;9.50;4.50;;;;;;;7.67;93.98;98497.75;1455582;89;21368;-78
2023/03/27 07:00:40;;;;;;;13.70;6.53;;;;;;;7.72;93.73;98499.05;1409989;91;21305;-78
2023/03/27 07:03:10;;;;;;;11.03;4.97;;;;;;;7.73;94.43;98492.77;1532744;89;21235;-78
2023/03/27 07:05:39;;;;;;;10.70;6.10;;;;;;;7.76;93.83;98491.92;1339484;92;21658;-78
2023/03/27 07:08:10;;;;;;;12.93;6.13;;;;;;;7.80;94.33;98489.77;1376554;88;21347;-79
2023/03/27 07:10:38;;;;;;;11.40;6.47;;;;;;;7.81;94.11;98487.45;1480619;90;21568;-79
2023/03/27 07:13:05;;;;;;;7.77;4.33;;;;;;;7.87;94.32;98489.38;1504966;91;21328;-78
2023/03/27 07:15:31;;;;;;;4.10;2.87;;;;;;;7.91;94.17;98489.33;1428454;88;21353;-79
2023/03/27 07:18:01;;;;;;;7.00;4.00;;;;;;;7.98;93.81;98490.77;1452967;90;21353;-79
2023/03/27 07:20:29;;;;;;;9.20;4.47;;;;;;;8.04;94.56;98482.15;1433051;91;21422;-80
2023/03/27 07:22:57;;;;;;;12.47;5.73;;;;;;;8.13;94.99;98483.20;1457938;89;21435;-79
2023/03/27 07:25:27;;;;;;;7.73;6.00;;;;;;;8.16;94.91;98477.27;1427214;91;22391;-78
2023/03/27 07:28:00;;;;;;;13.63;9.50;;;;;;;8.16;95.13;98477.27;1450542;88;22307;-77
2023/03/27 07:30:27;;;;;;;19.90;10.63;;;;;;;8.18;94.58;98472.64;1421563;91;21542;-75
2023/03/27 07:32:54;;;;;;;31.80;16.37;;;;;;;8.22;95.18;98471.27;1448511;89;22456;-76
2023/03/27 07:35:20;;;;;;;209.50;109.27;;;;;;;8.27;96.07;98468.41;1456009;89;21502;-74
2023/03/27 07:37:46;;;;;;;322.17;138.67;;;;;;;8.38;95.68;98463.20;1454294;89;21398;-77
2023/03/27 07:40:12;;;;;;;89.77;44.80;;;;;;;8.52;95.45;98460.28;1447202;90;22344;-76
2023/03/27 07:42:44;;;;;;;54.97;33.00;;;;;;;8.66;95.14;98449.39;1451711;89;21494;-80
2023/03/27 07:45:12;;;;;;;44.87;29.47;;;;;;;8.79;94.57;98448.25;1457399;89;21310;-81
2023/03/27 07:47:42;;;;;;;92.87;58.87;;;;;;;8.87;94.24;98444.19;1451417;90;22277;-80
2023/03/27 07:50:13;;;;;;;105.13;67.43;;;;;;;8.95;94.24;98441.45;1452424;89;21450;-80
2023/03/27 07:52:42;;;;;;;22.10;14.03;;;;;;;9.00;93.41;98440.88;1455743;89;21348;-80
2023/03/27 07:55:16;;;;;;;15.07;9.43;;;;;;;9.04;93.95;98444.28;1452751;89;21339;-80
2023/03/27 07:57:48;;;;;;;27.60;16.43;;;;;;;9.12;93.14;98430.64;1433627;91;21305;-79
2023/03/27 08:00:17;;;;;;;17.07;5.43;;;;;;;9.12;93.27;98422.73;1441735;90;21500;-80
2023/03/27 08:02:45;;;;;;;16.37;6.10;;;;;;;9.19;93.62;98423.63;1445019;89;21832;-80
2023/03/27 08:05:12;;;;;;;6.43;3.87;;;;;;;9.27;93.51;98414.27;1426947;91;21536;-79
2023/03/27 08:07:39;;;;;;;6.20;3.97;;;;;;;9.34;92.89;98413.82;1450226;89;21383;-80
2023/03/27 08:10:08;;;;;;;11.60;5.63;;;;;;;9.40;92.61;98403.82;1458575;89;21633;-80
2023/03/27 08:12:35;;;;;;;10.67;4.20;;;;;;;9.45;92.26;98402.76;1422276;91;22400;-80
2023/03/27 08:15:02;;;;;;;7.60;3.83;;;;;;;9.51;91.97;98396.41;1450698;88;21554;-80
2023/03/27 08:17:32;;;;;;;5.77;3.27;;;;;;;9.54;91.86;98394.70;1429836;91;21363;-80
2023/03/27 08:20:08;;;;;;;5.07;2.90;;;;;;;9.58;91.65;98398.59;1445303;89;22190;-79
2023/03/27 08:22:27;;;;;;;7.00;2.80;;;;;;;9.62;91.04;98397.22;1448276;89;22364;-79
2023/03/27 08:24:53;;;;;;;4.90;3.10;;;;;;;9.65;91.24;98392.87;1416819;91;21467;-79
2023/03/27 08:27:19;;;;;;;14.40;6.50;;;;;;;9.65;91.60;98387.59;1460497;90;21553;-80
2023/03/27 08:29:46;;;;;;;5.27;3.33;;;;;;;9.69;90.77;98384.86;1424135;91;21430;-80
2023/03/27 08:32:12;;;;;;;7.47;4.77;;;;;;;9.69;90.75;98378.27;1456982;88;21390;-80
2023/03/27 08:34:39;;;;;;;4.20;2.80;;;;;;;9.66;89.92;98375.50;1434118;91;21356;-80
2023/03/27 08:37:07;;;;;;;5.20;3.30;;;;;;;9.64;89.77;98371.44;1448473;90;21359;-80
2023/03/27 08:39:34;;;;;;;5.37;3.27;;;;;;;9.57;90.53;98373.20;1430596;91;22284;-80
2023/03/27 08:42:04;;;;;;;4.30;2.77;;;;;;;9.57;90.34;98367.91;1459570;88;21397;-80
2023/03/27 08:44:34;;;;;;;8.70;3.05;;;;;;;9.56;90.68;98367.11;1452580;89;21295;-80
2023/03/27 08:47:33;;;;;;;4.62;2.92;;;;;;;9.54;89.75;98368.30;1448564;89;21538;-79
2023/03/27 08:50:04;;;;;;;8.47;3.67;;;;;;;9.53;89.95;98370.13;1430095;91;22326;-82
2023/03/27 08:52:33;;;;;;;9.37;3.77;;;;;;;9.46;90.46;98372.69;1448135;90;21700;-82
2023/03/27 08:55:17;;;;;;;8.03;4.20;;;;;;;9.43;90.49;98366.48;1457800;89;21488;-82
2023/03/27 08:57:43;;;;;;;6.20;3.00;;;;;;;9.41;90.48;98361.91;1434304;91;21830;-82
2023/03/27 09:00:28;;;;;;;7.97;3.33;;;;;;;9.40;90.79;98368.17;1445803;90;21382;-81
2023/03/27 09:03:20;;;;;;;6.93;3.70;;;;;;;9.42;91.11;98368.81;1414006;91;21689;-81
2023/03/27 09:05:59;;;;;;;7.57;4.27;;;;;;;9.45;91.56;98373.71;1450708;89;21655;-81
2023/03/27 09:08:37;;;;;;;7.90;4.43;;;;;;;9.46;91.81;98368.73;1429559;91;21422;-81
2023/03/27 09:11:24;;;;;;;6.37;3.13;;;;;;;9.47;91.70;98371.70;1450843;90;22292;-81
2023/03/27 09:13:51;;;;;;;5.00;3.17;;;;;;;9.45;91.45;98368.43;1430995;91;21430;-80
2023/03/27 09:16:47;;;;;;;6.23;3.60;;;;;;;9.43;92.17;98373.08;1446724;90;22351;-82
2023/03/27 09:19:21;;;;;;;;;;;;;;;9.44;92.31;98369.45;1434382;91;21623;-81
2023/03/27 09:22:04;;;;;;;6.23;4.00;;;;;;;9.47;93.45;98370.39;1413869;92;20796;-81
2023/03/27 09:24:41;;;;;;;7.90;3.83;;;;;;;9.49;92.55;98368.38;1435094;89;22463;-81
2023/03/27 09:27:36;;;;;;;9.17;5.20;;;;;;;9.48;93.13;98383.08;1431397;91;21453;-82
2023/03/27 09:30:10;;;;;;;8.10;5.37;;;;;;;9.48;92.86;98383.08;1457131;89;21449;-81
2023/03/27 09:32:38;;;;;;;6.67;4.00;;;;;;;9.41;95.14;98383.03;1429105;91;21490;-79
2023/03/27 09:35:05;;;;;;;10.30;5.27;;;;;;;9.40;93.72;98380.06;1455017;90;21456;-77
2023/03/27 09:37:31;;;;;;;7.03;4.33;;;;;;;9.35;94.00;98377.20;1424594;91;21408;-77
2023/03/27 09:39:59;;;;;;;7.60;3.77;;;;;;;9.35;94.63;98373.23;1453407;89;21442;-77
2023/03/27 09:42:33;;;;;;;11.53;5.90;;;;;;;9.37;93.72;98367.75;1424642;91;21453;-78
2023/03/27 09:45:06;;;;;;;10.37;5.40;;;;;;;9.38;94.37;98368.89;1457019;89;21620;-78
2023/03/27 09:47:44;;;;;;;10.57;4.80;;;;;;;9.37;95.45;98373.03;1449945;90;21560;-78
2023/03/27 09:50:41;;;;;;;11.07;5.20;;;;;;;9.36;94.12;98366.12;1425329;91;21460;-76
2023/03/27 09:53:14;;;;;;;9.90;6.07;;;;;;;9.38;96.48;98367.58;1454914;89;21338;-76
2023/03/27 09:56:01;;;;;;;9.80;5.07;;;;;;;9.43;95.12;98363.84;1428649;91;21500;-76
2023/03/27 09:58:35;;;;;;;7.90;4.40;;;;;;;9.49;95.79;98358.30;1462928;89;21353;-79
2023/03/27 10:01:21;;;;;;;8.37;5.10;;;;;;;9.59;96.37;98367.23;1423873;91;21364;-77
2023/03/27 10:03:55;;;;;;;5.77;3.87;;;;;;;9.70;94.61;98356.14;1460329;89;21441;-78
2023/03/27 10:06:37;;;;;;;8.67;5.40;;;;;;;9.81;96.31;98359.58;1450774;89;21516;-77
2023/03/27 10:09:26;;;;;;;11.37;5.10;;;;;;;9.84;96.27;98359.19;1427262;91;21437;-77
2023/03/27 10:12:06;;;;;;;7.77;3.67;;;;;;;9.86;95.32;98354.50;1451972;89;21405;-77
2023/03/27 10:14:41;;;;;;;6.90;3.72;;;;;;;9.85;94.65;98360.81;1431656;91;21459;-77
2023/03/27 10:17:24;;;;;;;6.00;4.13;;;;;;;9.83;95.99;98354.89;1454123;89;22676;-77
2023/03/27 10:20:07;;;;;;;7.03;3.60;;;;;;;9.93;96.02;98360.66;1441770;89;21339;-78
2023/03/27 10:22:34;;;;;;;7.97;4.40;;;;;;;10.11;95.62;98353.55;1456314;89;21542;-77
2023/03/27 10:25:05;;;;;;;6.05;3.75;;;;;;;10.25;94.42;98351.80;1433223;91;21601;-78
2023/03/27 10:27:35;;;;;;;6.20;3.22;;;;;;;10.29;93.58;98339.83;1448962;90;21331;-77
2023/03/27 10:30:02;;;;;;;6.90;3.80;;;;;;;10.33;93.24;98342.41;1430742;91;21552;-77
2023/03/27 10:32:46;;;;;;;8.20;4.60;;;;;;;10.27;92.05;98341.88;1448565;88;22308;-78
2023/03/27 10:35:24;;;;;;;10.00;6.23;;;;;;;10.24;91.80;98338.27;1426765;91;21400;-78
2023/03/27 10:37:51;;;;;;;5.23;4.23;;;;;;;10.11;93.15;98332.91;1457942;90;21664;-77
2023/03/27 10:40:22;;;;;;;7.30;4.97;;;;;;;10.04;93.17;98332.05;1449834;89;22270;-77
2023/03/27 10:42:48;;;;;;;;;;;;;;;10.00;93.74;98332.95;1433777;91;21437;-78
2023/03/27 10:45:18;;;;;;;9.53;4.23;;;;;;;9.99;93.84;98325.23;1417572;92;20348;-78
2023/03/27 10:47:49;;;;;;;9.20;4.35;;;;;;;9.99;94.55;98330.52;1457029;88;21538;-77
2023/03/27 10:50:43;;;;;;;7.50;4.10;;;;;;;9.97;93.93;98333.84;1412373;91;21467;-77
2023/03/27 10:53:36;;;;;;;12.43;8.97;;;;;;;9.96;93.93;98322.98;1450464;89;21553;-78
2023/03/27 10:56:23;;;;;;;8.70;5.07;;;;;;;9.89;93.30;98325.05;1456673;90;21515;-77
2023/03/27 10:59:04;;;;;;;9.10;4.67;;;;;;;9.84;93.26;98328.80;1446920;89;21383;-77
2023/03/27 11:01:44;;;;;;;6.50;4.30;;;;;;;9.83;93.80;98331.11;1425616;91;21495;-77
2023/03/27 11:04:40;;;;;;;7.73;4.27;;;;;;;9.82;94.97;98325.53;1454592;90;21842;-78
2023/03/27 11:07:27;;;;;;;11.20;5.67;;;;;;;9.83;95.60;98331.11;1427112;91;21549;-77
2023/03/27 11:10:25;;;;;;;4.93;4.30;;;;;;;9.74;95.87;98334.92;1445964;90;21927;-78
2023/03/27 11:12:56;;;;;;;7.70;5.07;;;;;;;9.70;95.86;98333.69;1428795;91;21519;-78
2023/03/27 11:15:30;;;;;;;10.45;5.72;;;;;;;9.64;96.37;98327.86;1449019;89;21427;-78
2023/03/27 11:18:23;;;;;;;10.60;4.00;;;;;;;9.55;97.15;98331.16;1442822;89;21457;-78
2023/03/27 11:21:15;;;;;;;8.57;4.30;;;;;;;9.51;96.51;98329.08;1427841;91;21489;-77
2023/03/27 11:27:41;;;;;;;13.57;5.13;;;;;;;9.32;96.82;98323.94;1402797;92;21649;-78
2023/03/27 11:30:31;;;;;;;12.23;6.50;;;;;;;9.26;96.28;98325.52;1406581;92;21551;-78
2023/03/27 11:33:24;;;;;;;14.27;8.00;;;;;;;9.15;96.03;98329.98;1410993;92;21746;-77
2023/03/27 11:36:08;;;;;;;10.97;6.10;;;;;;;9.02;97.86;98328.86;1385806;94;21379;-75
2023/03/27 11:38:40;;;;;;;6.27;3.93;;;;;;;9.01;97.27;98327.24;1403603;92;22463;-78
2023/03/27 11:41:11;;;;;;;8.50;4.40;;;;;;;8.93;97.39;98327.36;1413915;92;22561;-78
2023/03/27 11:43:39;;;;;;;9.37;4.67;;;;;;;8.91;97.28;98324.59;1394912;94;21600;-78
2023/03/27 11:46:35;;;;;;;9.00;4.33;;;;;;;8.83;98.82;98328.67;1411803;92;21495;-77
2023/03/27 11:49:29;;;;;;;11.23;6.13;;;;;;;8.72;98.82;98328.68;1395043;92;21523;-77
2023/03/27 11:52:12;;;;;;;10.63;3.83;;;;;;;8.67;98.70;98329.23;1384501;94;22625;-77
2023/03/27 11:55:09;;;;;;;9.93;4.23;;;;;;;8.57;99.27;98325.58;1424890;90;22535;-77
2023/03/27 11:57:49;;;;;;;6.10;3.43;;;;;;;8.54;99.36;98325.92;1431795;91;22442;-77
2023/03/27 12:00:26;;;;;;;7.10;3.70;;;;;;;8.47;99.29;98317.14;1456370;90;21493;-77
2023/03/27 12:03:27;;;;;;;6.87;4.17;;;;;;;8.38;99.82;98319.55;1507329;91;21420;-76
2023/03/27 12:06:23;;;;;;;6.28;3.70;;;;;;;8.36;100.00;98310.48;1377023;90;21317;-77
2023/03/27 12:09:26;;;;;;;6.00;3.63;;;;;;;8.35;99.46;98308.05;1446907;91;21422;-78
2023/03/27 12:12:00;;;;;;;8.60;3.83;;;;;;;8.35;99.99;98301.47;1454102;88;22306;-78
2023/03/27 12:15:00;;;;;;;8.30;4.13;;;;;;;8.39;100.00;98298.80;1437020;90;21471;-78
2023/03/27 12:17:35;;;;;;;11.93;5.07;;;;;;;8.45;99.50;98292.77;1463730;90;21501;-78
2023/03/27 12:20:25;;;;;;;13.73;6.27;;;;;;;8.50;100.00;98293.04;1456750;90;21547;-77
2023/03/27 12:23:18;;;;;;;7.60;5.43;;;;;;;8.56;99.51;98293.61;1426653;91;21510;-78